createdAt,value
2018-02-15T00:01:33.695Z,55.14
2018-02-15T00:04:01.971Z,55.04
2018-02-15T00:06:30.267Z,55.21
2018-02-15T00:08:58.849Z,54.93
2018-02-15T00:11:27.160Z,54.83
2018-02-15T00:13:55.421Z,54.74
2018-02-15T00:16:23.730Z,54.65
2018-02-15T00:18:52.008Z,54.56
2018-02-15T00:21:20.294Z,54.62
2018-02-15T00:23:48.589Z,54.19
2018-02-15T00:26:16.850Z,54.34
2018-02-15T00:28:45.134Z,54.34
2018-02-15T00:31:13.780Z,54.09
2018-02-15T00:33:42.059Z,53.74
2018-02-15T00:36:10.371Z,53.81
2018-02-15T00:38:38.682Z,53.62
2018-02-15T00:41:06.956Z,53.91
2018-02-15T00:43:35.232Z,53.73
2018-02-15T00:46:03.531Z,53.78
2018-02-15T00:48:31.811Z,53.72
2018-02-15T00:51:00.115Z,53.71
2018-02-15T00:53:28.424Z,53.78
2018-02-15T00:55:56.716Z,53.55
2018-02-15T00:58:25.328Z,53.42
2018-02-15T01:00:53.618Z,53.55
2018-02-15T01:03:21.908Z,53.57
2018-02-15T01:05:50.217Z,53.80
2018-02-15T01:08:18.584Z,53.85
2018-02-15T01:10:46.912Z,54.10
2018-02-15T01:13:15.208Z,54.00
2018-02-15T01:15:43.565Z,54.20
2018-02-15T01:18:11.869Z,54.03
2018-02-15T01:20:40.147Z,54.07
2018-02-15T01:23:09.478Z,53.95
2018-02-15T01:25:37.724Z,53.74
2018-02-15T01:28:06.029Z,53.67
2018-02-15T01:30:34.328Z,53.89
2018-02-15T01:33:02.628Z,54.22
2018-02-15T01:35:30.908Z,54.12
2018-02-15T01:37:59.183Z,54.19
2018-02-15T01:40:27.498Z,54.55
2018-02-15T01:42:55.751Z,54.77
2018-02-15T01:45:24.073Z,54.35
2018-02-15T01:47:52.353Z,54.58
2018-02-15T01:50:20.665Z,54.43
2018-02-15T01:52:48.936Z,54.55
2018-02-15T01:55:17.229Z,54.10
2018-02-15T01:57:45.519Z,53.67
2018-02-15T02:00:13.796Z,53.53
2018-02-15T02:02:42.089Z,53.29
2018-02-15T02:05:10.365Z,53.06
2018-02-15T02:07:38.693Z,53.05
2018-02-15T02:10:06.964Z,53.45
2018-02-15T02:12:35.255Z,53.56
2018-02-15T02:15:03.614Z,53.55
2018-02-15T02:17:31.910Z,53.54
2018-02-15T02:20:00.226Z,53.62
2018-02-15T02:22:28.582Z,53.41
2018-02-15T02:24:56.888Z,52.79
2018-02-15T02:27:25.143Z,53.13
2018-02-15T02:29:53.463Z,53.08
2018-02-15T02:32:21.730Z,53.17
2018-02-15T02:34:50.012Z,53.32
2018-02-15T02:37:18.280Z,53.19
2018-02-15T02:39:46.559Z,52.97
2018-02-15T02:42:14.838Z,52.60
2018-02-15T02:44:43.156Z,52.77
2018-02-15T02:47:11.452Z,52.95
2018-02-15T02:49:39.711Z,52.75
2018-02-15T02:52:08.017Z,52.82
2018-02-15T02:54:36.268Z,52.83
2018-02-15T02:57:05.107Z,52.90
2018-02-15T02:59:33.392Z,52.90
2018-02-15T03:02:01.693Z,53.01
2018-02-15T03:04:29.987Z,53.03
2018-02-15T03:06:58.259Z,53.06
2018-02-15T03:09:26.557Z,52.85
2018-02-15T03:11:54.811Z,52.61
2018-02-15T03:14:23.107Z,52.49
2018-02-15T03:16:51.379Z,52.38
2018-02-15T03:19:19.743Z,52.45
2018-02-15T03:21:48.007Z,52.78
2018-02-15T03:24:16.278Z,52.48
2018-02-15T03:26:44.563Z,52.43
2018-02-15T03:29:12.835Z,52.23
2018-02-15T03:31:41.208Z,52.43
2018-02-15T03:34:09.440Z,52.49
2018-02-15T03:36:37.754Z,52.58
2018-02-15T03:39:06.044Z,52.72
2018-02-15T03:41:34.365Z,52.71
2018-02-15T03:44:02.624Z,52.67
2018-02-15T03:46:30.963Z,52.59
2018-02-15T03:48:59.210Z,52.21
2018-02-15T03:51:27.560Z,52.42
2018-02-15T03:53:55.906Z,52.20
2018-02-15T03:56:24.179Z,52.41
2018-02-15T03:58:52.486Z,52.29
2018-02-15T04:01:20.765Z,52.16
2018-02-15T04:03:49.071Z,52.32
2018-02-15T04:06:17.347Z,52.18
2018-02-15T04:08:45.660Z,51.96
2018-02-15T04:11:13.945Z,51.94
2018-02-15T04:13:42.213Z,52.15
2018-02-15T04:16:10.507Z,51.78
2018-02-15T04:18:38.798Z,51.60
2018-02-15T04:21:07.078Z,51.64
2018-02-15T04:23:35.348Z,51.47
2018-02-15T04:26:03.624Z,51.71
2018-02-15T04:28:31.898Z,51.86
2018-02-15T04:31:00.227Z,51.67
2018-02-15T04:33:28.469Z,51.65
2018-02-15T04:35:56.764Z,51.67
2018-02-15T04:38:25.071Z,51.42
2018-02-15T04:40:53.363Z,51.44
2018-02-15T04:43:21.685Z,51.15
2018-02-15T04:45:49.972Z,51.60
2018-02-15T04:48:18.248Z,51.94
2018-02-15T04:50:46.563Z,52.20
2018-02-15T04:53:14.848Z,52.16
2018-02-15T04:55:43.184Z,52.63
2018-02-15T04:58:11.478Z,52.24
2018-02-15T05:00:39.758Z,53.05
2018-02-15T05:03:08.040Z,53.94
2018-02-15T05:05:36.307Z,54.97
2018-02-15T05:08:05.306Z,56.05
2018-02-15T05:10:33.584Z,57.28
2018-02-15T05:13:01.859Z,58.79
2018-02-15T05:15:30.141Z,59.15
2018-02-15T05:17:58.410Z,60.19
2018-02-15T05:20:26.684Z,59.94
2018-02-15T05:22:54.983Z,60.69
2018-02-15T05:25:23.287Z,60.74
2018-02-15T05:27:51.573Z,61.74
2018-02-15T05:30:19.924Z,62.72
2018-02-15T05:32:48.207Z,63.95
2018-02-15T05:35:16.480Z,64.35
2018-02-15T05:37:44.752Z,64.54
2018-02-15T05:40:13.035Z,64.68
2018-02-15T05:42:41.310Z,65.33
2018-02-15T05:45:09.588Z,66.71
2018-02-15T05:47:37.847Z,66.56
2018-02-15T05:50:06.459Z,68.19
2018-02-15T05:52:34.786Z,68.78
2018-02-15T05:55:03.075Z,69.79
2018-02-15T05:57:31.442Z,70.38
2018-02-15T05:59:59.824Z,70.77
2018-02-15T06:02:28.130Z,72.38
2018-02-15T06:04:56.388Z,73.06
2018-02-15T06:07:24.692Z,73.54
2018-02-15T06:09:52.956Z,74.04
2018-02-15T06:12:21.239Z,73.72
2018-02-15T06:14:49.493Z,73.67
2018-02-15T06:17:17.803Z,73.00
2018-02-15T06:19:46.107Z,72.45
2018-02-15T06:22:14.390Z,72.23
2018-02-15T06:24:42.687Z,71.89
2018-02-15T06:27:10.935Z,72.32
2018-02-15T06:29:39.243Z,73.92
2018-02-15T06:32:07.527Z,76.13
2018-02-15T06:34:35.850Z,76.59
2018-02-15T06:37:04.124Z,76.31
2018-02-15T06:39:32.448Z,76.46
2018-02-15T06:42:00.752Z,75.89
2018-02-15T06:44:29.013Z,76.54
2018-02-15T06:46:57.306Z,76.89
2018-02-15T06:49:25.608Z,77.19
2018-02-15T06:51:53.867Z,77.23
2018-02-15T06:54:22.180Z,77.26
2018-02-15T06:56:50.474Z,77.20
2018-02-15T06:59:18.761Z,77.37
2018-02-15T07:01:47.039Z,77.55
2018-02-15T07:04:15.343Z,77.29
2018-02-15T07:06:44.290Z,77.57
2018-02-15T07:09:12.590Z,77.53
2018-02-15T07:11:40.871Z,77.59
2018-02-15T07:14:10.006Z,77.21
2018-02-15T07:16:38.958Z,77.07
2018-02-15T07:19:07.232Z,76.49
2018-02-15T07:21:35.522Z,75.55
2018-02-15T07:24:04.838Z,75.28
2018-02-15T07:26:33.147Z,75.68
2018-02-15T07:29:01.443Z,75.39
2018-02-15T07:31:29.729Z,75.30
2018-02-15T07:33:58.047Z,75.31
2018-02-15T07:36:26.386Z,75.54
2018-02-15T07:38:54.599Z,75.20
2018-02-15T07:41:22.911Z,74.73
2018-02-15T07:43:51.180Z,74.28
2018-02-15T07:46:19.447Z,73.71
2018-02-15T07:48:47.733Z,74.38
2018-02-15T07:51:16.015Z,75.26
2018-02-15T07:53:44.474Z,75.54
2018-02-15T07:56:12.753Z,76.49
2018-02-15T07:58:41.073Z,76.11
2018-02-15T08:01:09.348Z,76.19
2018-02-15T08:03:37.668Z,75.96
2018-02-15T08:06:06.118Z,76.72
2018-02-15T08:08:34.378Z,77.09
2018-02-15T08:11:02.700Z,77.18
2018-02-15T08:13:31.008Z,77.47
2018-02-15T08:15:59.271Z,77.23
2018-02-15T08:18:28.495Z,76.46
2018-02-15T08:20:56.779Z,76.39
2018-02-15T08:23:25.124Z,75.52
2018-02-15T08:25:53.435Z,75.26
2018-02-15T08:28:21.731Z,76.04
2018-02-15T08:30:50.031Z,75.59
2018-02-15T08:33:18.310Z,75.36
2018-02-15T08:35:46.608Z,75.91
2018-02-15T08:38:14.892Z,75.61
2018-02-15T08:40:43.217Z,76.25
2018-02-15T08:43:11.568Z,76.57
2018-02-15T08:45:39.827Z,76.49
2018-02-15T08:48:08.120Z,76.61
2018-02-15T08:50:36.399Z,77.33
2018-02-15T08:53:04.749Z,77.44
2018-02-15T08:55:33.008Z,77.12
2018-02-15T08:58:01.317Z,76.92
2018-02-15T09:00:29.601Z,76.93
2018-02-15T09:02:57.967Z,76.86
2018-02-15T09:05:26.225Z,77.63
2018-02-15T09:07:54.551Z,77.69
2018-02-15T09:10:22.866Z,77.84
2018-02-15T09:12:51.181Z,77.56
2018-02-15T09:15:19.426Z,77.76
2018-02-15T09:17:47.946Z,77.96
2018-02-15T09:20:16.796Z,77.45
2018-02-15T09:22:45.054Z,77.38
2018-02-15T09:25:13.396Z,77.25
2018-02-15T09:27:41.704Z,77.09
2018-02-15T09:30:10.036Z,76.47
2018-02-15T09:32:39.034Z,76.07
2018-02-15T09:35:08.010Z,76.53
2018-02-15T09:37:36.268Z,76.28
2018-02-15T09:40:05.720Z,76.15
2018-02-15T09:42:33.994Z,75.74
2018-02-15T09:45:03.054Z,76.37
2018-02-15T09:47:31.308Z,75.48
2018-02-15T09:49:59.580Z,75.73
2018-02-15T09:52:27.878Z,75.79
2018-02-15T09:54:56.130Z,75.54
2018-02-15T09:57:24.486Z,75.96
2018-02-15T09:59:52.748Z,76.25
2018-02-15T10:02:21.079Z,76.08
2018-02-15T10:04:49.355Z,75.75
2018-02-15T10:07:17.645Z,74.26
2018-02-15T10:09:45.895Z,75.18
2018-02-15T10:12:14.199Z,75.76
2018-02-15T10:14:42.504Z,75.68
2018-02-15T10:17:10.783Z,76.84
2018-02-15T10:19:39.463Z,76.73
2018-02-15T10:22:07.763Z,76.01
2018-02-15T10:24:36.049Z,75.39
2018-02-15T10:27:05.221Z,76.28
2018-02-15T10:29:33.559Z,75.94
2018-02-15T10:32:01.840Z,76.34
2018-02-15T10:34:30.133Z,75.99
2018-02-15T10:36:58.404Z,75.50
2018-02-15T10:39:26.690Z,76.27
2018-02-15T10:41:55.031Z,76.37
2018-02-15T10:44:23.500Z,76.70
2018-02-15T10:46:51.811Z,76.56
2018-02-15T10:49:20.104Z,76.60
2018-02-15T10:51:48.505Z,75.51
2018-02-15T10:54:16.773Z,75.51
2018-02-15T10:56:45.159Z,75.91
2018-02-15T10:59:13.451Z,76.38
2018-02-15T11:01:41.771Z,76.59
2018-02-15T11:04:24.412Z,76.32
2018-02-15T11:06:52.736Z,75.53
2018-02-15T11:09:21.068Z,75.67
2018-02-15T11:11:49.332Z,75.93
2018-02-15T11:14:17.603Z,75.98
2018-02-15T11:16:45.892Z,76.74
2018-02-15T11:19:14.208Z,76.66
2018-02-15T11:21:42.532Z,76.01
2018-02-15T11:24:10.817Z,75.68
2018-02-15T11:26:39.240Z,75.96
2018-02-15T11:29:07.555Z,76.78
2018-02-15T11:31:35.825Z,77.47
2018-02-15T11:34:04.229Z,77.35
2018-02-15T11:36:32.573Z,77.99
2018-02-15T11:39:00.845Z,77.05
2018-02-15T11:41:29.180Z,76.57
2018-02-15T11:43:57.474Z,76.10
2018-02-15T11:46:25.804Z,76.10
2018-02-15T11:48:54.103Z,76.45
2018-02-15T11:51:22.398Z,77.06
2018-02-15T11:53:50.658Z,77.25
2018-02-15T11:56:18.957Z,76.96
2018-02-15T11:58:47.244Z,77.08
2018-02-15T12:01:15.674Z,76.97
2018-02-15T12:03:44.045Z,76.94
2018-02-15T12:06:12.364Z,76.63
2018-02-15T12:08:40.625Z,76.40
2018-02-15T12:11:08.948Z,76.29
2018-02-15T12:13:37.252Z,76.87
2018-02-15T12:16:05.583Z,77.06
2018-02-15T12:18:33.839Z,77.28
2018-02-15T12:21:02.191Z,77.15
2018-02-15T12:23:30.508Z,76.76
2018-02-15T12:25:58.815Z,76.63
2018-02-15T12:28:27.087Z,77.14
2018-02-15T12:30:55.394Z,77.35
2018-02-15T12:33:23.754Z,77.08
2018-02-15T12:35:52.047Z,77.36
2018-02-15T12:38:20.361Z,77.44
2018-02-15T12:40:48.645Z,77.44
2018-02-15T12:43:16.961Z,77.29
2018-02-15T12:45:45.256Z,77.79
2018-02-15T12:48:13.662Z,78.09
2018-02-15T12:50:41.901Z,77.95
2018-02-15T12:53:10.255Z,78.29
2018-02-15T12:55:38.664Z,78.46
2018-02-15T12:58:06.957Z,78.48
2018-02-15T13:00:35.279Z,78.41
2018-02-15T13:03:04.645Z,78.79
2018-02-15T13:05:32.863Z,79.06
2018-02-15T13:08:02.167Z,79.23
2018-02-15T13:10:30.435Z,79.06
2018-02-15T13:13:10.404Z,78.98
2018-02-15T13:15:50.386Z,78.95
2018-02-15T13:18:18.797Z,78.92
2018-02-15T13:20:47.103Z,79.50
2018-02-15T13:23:15.427Z,79.76
2018-02-15T13:25:43.862Z,79.46
2018-02-15T13:31:12.092Z,79.15
2018-02-15T13:33:41.119Z,79.88
2018-02-15T13:36:09.446Z,79.79
2018-02-15T13:38:37.928Z,79.40
2018-02-15T13:41:06.364Z,79.24
2018-02-15T13:43:34.651Z,79.51
2018-02-15T13:46:03.031Z,79.23
2018-02-15T13:48:32.335Z,79.35
2018-02-15T13:51:00.650Z,79.50
2018-02-15T13:53:28.992Z,79.93
2018-02-15T13:55:57.358Z,80.56
2018-02-15T13:58:25.849Z,80.30
2018-02-15T14:00:56.954Z,80.13
2018-02-15T14:03:27.466Z,79.62
2018-02-15T14:05:55.772Z,79.45
2018-02-15T14:08:24.104Z,80.37
2018-02-15T14:10:52.381Z,80.26
2018-02-15T14:13:20.672Z,80.06
2018-02-15T14:15:48.990Z,79.96
2018-02-15T14:18:17.279Z,80.09
2018-02-15T14:20:45.815Z,80.25
2018-02-15T14:23:14.103Z,80.53
2018-02-15T14:25:42.440Z,81.30
2018-02-15T14:28:10.733Z,81.00
2018-02-15T14:30:39.080Z,81.34
2018-02-15T14:33:07.391Z,81.33
2018-02-15T14:35:35.780Z,80.74
2018-02-15T14:38:04.422Z,80.40
2018-02-15T14:40:32.773Z,80.57
2018-02-15T14:43:01.059Z,80.74
2018-02-15T14:45:29.372Z,80.21
2018-02-15T14:47:58.401Z,79.96
2018-02-15T14:50:26.672Z,80.33
2018-02-15T14:52:55.037Z,80.18
2018-02-15T14:55:23.296Z,81.17
2018-02-15T14:57:51.637Z,82.21
2018-02-15T15:00:19.986Z,82.64
2018-02-15T15:02:48.281Z,81.82
2018-02-15T15:05:16.573Z,80.80
2018-02-15T15:07:44.888Z,80.55
2018-02-15T15:10:13.675Z,80.56
2018-02-15T15:12:42.048Z,80.33
2018-02-15T15:15:10.834Z,80.21
2018-02-15T15:17:39.141Z,79.69
2018-02-15T15:20:07.474Z,79.19
2018-02-15T15:22:35.772Z,79.38
2018-02-15T15:25:05.033Z,79.28
2018-02-15T15:27:33.329Z,79.57
2018-02-15T15:30:01.694Z,79.42
2018-02-15T15:32:29.969Z,79.96
2018-02-15T15:34:58.272Z,80.54
2018-02-15T15:37:26.584Z,80.70
2018-02-15T15:39:54.855Z,80.87
2018-02-15T15:42:23.166Z,80.52
2018-02-15T15:44:51.407Z,80.36
2018-02-15T15:47:19.718Z,80.48
2018-02-15T15:49:47.997Z,80.18
2018-02-15T15:52:16.292Z,80.15
2018-02-15T15:54:44.547Z,80.31
2018-02-15T15:57:12.897Z,80.67
2018-02-15T15:59:41.174Z,80.37
2018-02-15T16:02:10.094Z,80.21
2018-02-15T16:04:39.126Z,80.08
2018-02-15T16:07:07.434Z,81.11
2018-02-15T16:09:35.790Z,80.95
2018-02-15T16:12:04.734Z,80.60
2018-02-15T16:14:33.050Z,80.45
2018-02-15T16:17:01.347Z,80.88
2018-02-15T16:19:29.631Z,81.02
2018-02-15T16:21:57.955Z,80.69
2018-02-15T16:24:26.277Z,80.69
2018-02-15T16:26:54.695Z,81.36
2018-02-15T16:29:22.978Z,80.94
2018-02-15T16:31:51.340Z,80.50
2018-02-15T16:34:19.615Z,80.60
2018-02-15T16:36:47.920Z,81.08
2018-02-15T16:39:16.188Z,81.81
2018-02-15T16:41:44.532Z,81.82
2018-02-15T16:44:12.892Z,81.95
2018-02-15T16:46:41.169Z,82.35
2018-02-15T16:49:09.518Z,82.15
2018-02-15T16:51:37.780Z,82.48
2018-02-15T16:54:06.238Z,82.45
2018-02-15T16:56:34.464Z,82.34
2018-02-15T16:59:02.785Z,82.13
2018-02-15T17:01:31.022Z,81.78
2018-02-15T17:03:59.422Z,81.88
2018-02-15T17:06:27.667Z,81.75
2018-02-15T17:08:55.944Z,81.41
2018-02-15T17:11:24.249Z,81.25
2018-02-15T17:13:52.561Z,81.04
2018-02-15T17:16:20.810Z,81.04
2018-02-15T17:18:49.127Z,81.69
2018-02-15T17:21:17.400Z,81.73
2018-02-15T17:23:45.702Z,81.83
2018-02-15T17:26:13.978Z,81.77
2018-02-15T17:28:42.944Z,81.70
2018-02-15T17:31:11.342Z,81.78
2018-02-15T17:33:39.617Z,82.56
2018-02-15T17:36:07.928Z,82.75
2018-02-15T17:38:36.203Z,82.61
2018-02-15T17:41:04.506Z,82.42
2018-02-15T17:43:32.807Z,82.26
2018-02-15T17:46:01.088Z,82.12
2018-02-15T17:48:29.411Z,81.96
2018-02-15T17:50:57.741Z,81.59
2018-02-15T17:53:26.193Z,82.02
2018-02-15T17:55:54.438Z,81.75
2018-02-15T17:58:22.745Z,81.61
2018-02-15T18:00:51.003Z,81.71
2018-02-15T18:03:20.011Z,81.72
2018-02-15T18:05:48.290Z,81.78
2018-02-15T18:08:16.618Z,81.59
2018-02-15T18:10:44.972Z,81.58
2018-02-15T18:13:13.327Z,81.50
2018-02-15T18:15:41.644Z,80.79
2018-02-15T18:18:09.914Z,81.41
2018-02-15T18:20:38.980Z,81.42
2018-02-15T18:23:07.274Z,81.53
2018-02-15T18:25:35.578Z,81.33
2018-02-15T18:28:04.707Z,81.32
2018-02-15T18:30:33.017Z,81.28
2018-02-15T18:33:01.302Z,81.02
2018-02-15T18:35:29.587Z,80.61
2018-02-15T18:37:58.287Z,80.28
2018-02-15T18:40:26.612Z,80.36
2018-02-15T18:42:54.953Z,80.14
2018-02-15T18:45:23.203Z,79.97
2018-02-15T18:47:51.513Z,79.79
2018-02-15T18:50:19.830Z,79.97
2018-02-15T18:52:48.253Z,80.04
2018-02-15T18:55:16.526Z,79.88
2018-02-15T18:57:44.828Z,79.86
2018-02-15T19:00:13.090Z,80.32
2018-02-15T19:02:41.392Z,80.30
2018-02-15T19:05:09.691Z,80.30
2018-02-15T19:07:37.975Z,80.12
2018-02-15T19:10:06.278Z,80.38
2018-02-15T19:12:34.568Z,80.48
2018-02-15T19:15:02.928Z,80.68
2018-02-15T19:17:31.293Z,81.19
2018-02-15T19:20:00.241Z,81.80
2018-02-15T19:22:28.505Z,81.83
2018-02-15T19:24:57.705Z,81.92
2018-02-15T19:27:25.984Z,82.10
2018-02-15T19:29:54.447Z,82.17
2018-02-15T19:32:22.775Z,82.33
2018-02-15T19:34:51.059Z,82.05
2018-02-15T19:37:19.363Z,81.94
2018-02-15T19:39:47.639Z,82.20
2018-02-15T19:42:15.942Z,82.41
2018-02-15T19:44:44.240Z,82.74
2018-02-15T19:47:12.535Z,82.71
2018-02-15T19:49:41.608Z,82.61
2018-02-15T19:52:09.907Z,82.71
2018-02-15T19:54:39.127Z,82.70
2018-02-15T19:57:07.412Z,82.78
2018-02-15T19:59:35.693Z,82.42
2018-02-15T20:02:04.788Z,82.44
2018-02-15T20:04:33.171Z,82.41
2018-02-15T20:07:01.458Z,82.45
2018-02-15T20:09:29.767Z,82.47
2018-02-15T20:11:58.074Z,82.41
2018-02-15T20:14:26.337Z,82.08
2018-02-15T20:16:54.644Z,82.36
2018-02-15T20:19:22.963Z,82.26
2018-02-15T20:21:51.244Z,82.16
2018-02-15T20:24:19.580Z,82.06
2018-02-15T20:26:53.393Z,81.96
2018-02-15T20:29:21.704Z,81.56
2018-02-15T20:31:49.976Z,81.21
2018-02-15T20:34:18.245Z,80.72
2018-02-15T20:36:46.505Z,80.69
2018-02-15T20:39:20.415Z,80.44
2018-02-15T20:41:48.674Z,80.32
2018-02-15T20:44:16.968Z,80.84
2018-02-15T20:46:45.261Z,81.20
2018-02-15T20:49:19.056Z,81.32
2018-02-15T20:51:52.857Z,81.26
2018-02-15T20:54:26.634Z,81.27
2018-02-15T20:56:54.891Z,81.59
2018-02-15T20:59:23.194Z,81.64
2018-02-15T21:01:51.567Z,81.77
2018-02-15T21:04:19.856Z,82.00
2018-02-15T21:06:48.142Z,82.03
2018-02-15T21:09:16.491Z,81.97
2018-02-15T21:11:44.766Z,81.84
2018-02-15T21:14:13.029Z,81.32
2018-02-15T21:16:41.336Z,81.18
2018-02-15T21:19:09.645Z,81.19
2018-02-15T21:21:37.980Z,81.23
2018-02-15T21:24:06.255Z,81.47
2018-02-15T21:26:34.534Z,82.25
2018-02-15T21:29:02.876Z,82.11
2018-02-15T21:31:31.104Z,81.92
2018-02-15T21:33:59.375Z,82.05
2018-02-15T21:36:27.675Z,82.03
2018-02-15T21:38:56.271Z,81.99
2018-02-15T21:41:24.593Z,81.86
2018-02-15T21:43:52.900Z,81.52
2018-02-15T21:46:21.171Z,81.57
2018-02-15T21:48:49.489Z,81.58
2018-02-15T21:51:17.756Z,81.79
2018-02-15T21:53:46.034Z,81.38
2018-02-15T21:56:14.304Z,81.47
2018-02-15T21:58:42.605Z,81.69
2018-02-15T22:01:10.887Z,81.50
2018-02-15T22:03:39.181Z,81.81
2018-02-15T22:06:07.467Z,81.87
2018-02-15T22:08:36.147Z,81.73
2018-02-15T22:11:04.444Z,82.62
2018-02-15T22:13:32.730Z,82.75
2018-02-15T22:16:01.100Z,82.90
2018-02-15T22:18:29.380Z,82.75
2018-02-15T22:20:57.742Z,82.21
2018-02-15T22:23:26.009Z,81.96
2018-02-15T22:25:54.318Z,82.17
2018-02-15T22:28:22.562Z,81.82
2018-02-15T22:30:50.881Z,81.90
2018-02-15T22:33:19.523Z,81.66
2018-02-15T22:35:47.821Z,81.82
2018-02-15T22:38:16.081Z,82.13
2018-02-15T22:40:44.386Z,82.28
2018-02-15T22:43:12.681Z,81.86
2018-02-15T22:45:40.987Z,82.06
2018-02-15T22:48:09.388Z,82.28
2018-02-15T22:50:37.654Z,82.40
2018-02-15T22:53:05.946Z,82.21
2018-02-15T22:55:34.211Z,81.90
2018-02-15T22:58:02.496Z,82.19
2018-02-15T23:00:30.807Z,82.14
2018-02-15T23:02:59.081Z,82.18
2018-02-15T23:05:27.413Z,83.44
2018-02-15T23:07:55.809Z,84.22
2018-02-15T23:10:24.125Z,84.57
2018-02-15T23:12:52.505Z,84.70
2018-02-15T23:15:21.035Z,84.74
2018-02-15T23:17:49.291Z,84.61
2018-02-15T23:20:17.601Z,84.02
2018-02-15T23:22:45.873Z,83.38
2018-02-15T23:25:14.164Z,82.79
2018-02-15T23:27:42.478Z,81.98
2018-02-15T23:30:10.703Z,81.65
2018-02-15T23:32:39.021Z,81.75
2018-02-15T23:35:07.288Z,81.73
2018-02-15T23:37:35.643Z,82.04
2018-02-15T23:40:03.930Z,82.02
2018-02-15T23:42:32.234Z,82.02
2018-02-15T23:45:00.551Z,82.12
2018-02-15T23:47:28.898Z,82.29
2018-02-15T23:49:57.239Z,82.36
2018-02-15T23:52:25.522Z,82.30
2018-02-15T23:54:53.849Z,82.41
2018-02-15T23:57:22.151Z,82.48
2018-02-15T23:59:50.464Z,82.76
